Time;durP1;ratioP1;P1;durP2;ratioP2;P2;SDS_P1;SDS_P2;PMS_P1;PMS_P2;Temp;Humidity;BMP_temperature;BMP_pressure;BME280_temperature;BME280_humidity;BME280_pressure;Samples;Min_cycle;Max_cycle;Signal;HPM_P1;HPM_P2
2023/04/17 00:00:42;;;;;;;9.05;1.63;;;;;;;;;;4902385;29;20482;-44
2023/04/17 00:03:12;;;;;;;8.27;2.20;;;;;;;;;;4897947;29;20458;-44
2023/04/17 00:05:44;;;;;;;8.37;1.73;;;;;;;;;;4906619;29;20491;-43
2023/04/17 00:08:12;;;;;;;7.00;2.42;;;;;;;;;;4906553;29;21581;-43
2023/04/17 00:10:39;;;;;;;11.50;2.33;;;;;;;;;;4925185;29;20079;-43
2023/04/17 00:13:07;;;;;;;8.27;2.15;;;;;;;;;;4902549;29;20544;-43
2023/04/17 00:15:34;;;;;;;10.55;1.80;;;;;;;;;;4904790;29;20110;-47
2023/04/17 00:18:02;;;;;;;11.47;2.50;;;;;;;;;;4907934;29;20047;-43
2023/04/17 00:20:31;;;;;;;9.13;2.38;;;;;;;;;;4910293;28;20386;-43
2023/04/17 00:22:59;;;;;;;9.82;2.30;;;;;;;;;;4890737;29;20048;-47
2023/04/17 00:25:27;;;;;;;9.07;2.58;;;;;;;;;;4903111;29;20071;-45
2023/04/17 00:27:54;;;;;;;13.18;1.95;;;;;;;;;;4906478;29;20134;-44
2023/04/17 00:30:22;;;;;;;11.67;2.53;;;;;;;;;;4904748;29;20095;-43
2023/04/17 00:32:49;;;;;;;13.85;1.98;;;;;;;;;;4904408;29;20163;-44
2023/04/17 00:35:17;;;;;;;9.27;2.50;;;;;;;;;;4907238;29;20043;-45
2023/04/17 00:37:47;;;;;;;7.82;2.42;;;;;;;;;;4918903;29;20036;-46
2023/04/17 00:40:15;;;;;;;10.02;2.70;;;;;;;;;;4907381;29;20104;-44
2023/04/17 00:42:44;;;;;;;14.63;2.77;;;;;;;;;;4921475;28;20043;-45
2023/04/17 00:45:12;;;;;;;11.20;2.50;;;;;;;;;;4906510;29;20542;-43
2023/04/17 00:47:39;;;;;;;8.63;2.53;;;;;;;;;;4907968;29;20055;-46
2023/04/17 00:50:08;;;;;;;13.13;3.78;;;;;;;;;;4913855;28;20033;-44
2023/04/17 00:52:35;;;;;;;10.95;3.05;;;;;;;;;;4917931;29;20524;-44
2023/04/17 00:55:06;;;;;;;12.67;3.17;;;;;;;;;;4906745;29;20047;-44
2023/04/17 00:57:34;;;;;;;9.95;2.53;;;;;;;;;;4910163;29;20502;-44
2023/04/17 01:00:02;;;;;;;10.07;2.50;;;;;;;;;;4910036;29;20086;-45
2023/04/17 01:02:29;;;;;;;12.35;2.90;;;;;;;;;;4903451;29;20099;-45
2023/04/17 01:04:58;;;;;;;11.68;3.15;;;;;;;;;;4917113;29;20040;-47
2023/04/17 01:07:27;;;;;;;11.67;3.00;;;;;;;;;;4906737;29;20044;-45
2023/04/17 01:09:55;;;;;;;11.73;2.88;;;;;;;;;;4917828;29;20048;-47
2023/04/17 01:12:24;;;;;;;15.23;3.35;;;;;;;;;;4910003;29;20110;-47
2023/04/17 01:14:52;;;;;;;12.52;3.60;;;;;;;;;;4910908;29;20036;-46
2023/04/17 01:17:20;;;;;;;11.88;3.60;;;;;;;;;;4906009;29;20074;-47
2023/04/17 01:19:48;;;;;;;16.47;4.30;;;;;;;;;;4912026;29;20047;-44
2023/04/17 01:22:16;;;;;;;13.15;4.43;;;;;;;;;;4922573;29;20063;-43
2023/04/17 01:24:45;;;;;;;20.52;4.00;;;;;;;;;;4913602;29;20070;-43
2023/04/17 01:27:13;;;;;;;13.38;4.13;;;;;;;;;;4928307;29;20028;-44
2023/04/17 01:29:41;;;;;;;14.05;3.90;;;;;;;;;;4906600;28;20043;-44
2023/04/17 01:32:09;;;;;;;15.60;3.63;;;;;;;;;;4909619;29;20032;-45
2023/04/17 01:34:37;;;;;;;13.45;3.50;;;;;;;;;;4906483;29;20043;-46
2023/04/17 01:37:08;;;;;;;12.75;4.15;;;;;;;;;;4918318;29;20135;-45
2023/04/17 01:39:36;;;;;;;12.18;4.40;;;;;;;;;;4915026;29;20051;-44
2023/04/17 01:42:06;;;;;;;14.50;4.53;;;;;;;;;;4903342;29;20536;-43
2023/04/17 01:44:35;;;;;;;15.97;4.30;;;;;;;;;;4918713;29;20489;-43
2023/04/17 01:47:03;;;;;;;13.35;3.95;;;;;;;;;;4914187;29;20691;-43
2023/04/17 01:49:31;;;;;;;13.77;4.10;;;;;;;;;;4894885;29;20067;-44
2023/04/17 01:51:59;;;;;;;13.88;4.25;;;;;;;;;;4917785;29;20102;-44
2023/04/17 01:54:26;;;;;;;16.60;4.18;;;;;;;;;;4910724;29;20071;-45
2023/04/17 01:56:55;;;;;;;12.00;3.50;;;;;;;;;;4904325;29;20127;-43
2023/04/17 01:59:24;;;;;;;13.23;3.92;;;;;;;;;;4910732;29;20071;-43
2023/04/17 02:01:52;;;;;;;15.38;4.45;;;;;;;;;;4908594;29;20082;-43
2023/04/17 02:04:20;;;;;;;10.48;3.72;;;;;;;;;;4897503;29;20039;-43
2023/04/17 02:06:48;;;;;;;19.55;4.40;;;;;;;;;;4907625;29;20036;-43
2023/04/17 02:09:16;;;;;;;15.33;4.87;;;;;;;;;;4900487;29;20075;-44
2023/04/17 02:11:44;;;;;;;17.65;4.65;;;;;;;;;;4903891;29;20119;-45
2023/04/17 02:14:11;;;;;;;13.57;4.70;;;;;;;;;;4907148;29;20124;-46
2023/04/17 02:16:44;;;;;;;16.25;4.15;;;;;;;;;;4911423;29;20048;-44
2023/04/17 02:19:12;;;;;;;14.43;4.40;;;;;;;;;;4906956;29;20056;-46
2023/04/17 02:21:40;;;;;;;12.43;4.03;;;;;;;;;;4916145;29;20060;-44
2023/04/17 02:24:08;;;;;;;17.23;4.15;;;;;;;;;;4917157;28;20044;-42
2023/04/17 02:26:36;;;;;;;14.98;4.63;;;;;;;;;;4915301;29;20081;-43
2023/04/17 02:29:04;;;;;;;13.75;4.47;;;;;;;;;;4912608;29;20053;-44
2023/04/17 02:31:32;;;;;;;11.65;4.35;;;;;;;;;;4915136;29;20059;-43
2023/04/17 02:34:01;;;;;;;15.23;4.37;;;;;;;;;;4911041;29;20036;-44
2023/04/17 02:36:29;;;;;;;13.05;4.32;;;;;;;;;;4910305;29;20138;-44
2023/04/17 02:38:57;;;;;;;14.15;4.65;;;;;;;;;;4903148;29;20430;-43
2023/04/17 02:41:25;;;;;;;17.15;4.82;;;;;;;;;;4917506;29;20501;-47
2023/04/17 02:43:52;;;;;;;14.45;4.57;;;;;;;;;;4908525;29;20074;-44
2023/04/17 02:46:20;;;;;;;18.30;4.40;;;;;;;;;;4896892;29;20126;-44
2023/04/17 02:48:47;;;;;;;15.25;4.85;;;;;;;;;;4899085;29;20048;-45
2023/04/17 02:51:17;;;;;;;15.80;5.13;;;;;;;;;;4898395;29;20047;-44
2023/04/17 02:53:44;;;;;;;20.33;5.60;;;;;;;;;;4918076;29;20071;-44
2023/04/17 02:56:12;;;;;;;17.40;5.53;;;;;;;;;;4906758;29;20054;-44
2023/04/17 02:58:43;;;;;;;15.13;5.53;;;;;;;;;;4916739;29;20074;-43
2023/04/17 03:01:12;;;;;;;17.67;5.03;;;;;;;;;;4904398;29;20044;-44
2023/04/17 03:03:40;;;;;;;13.10;5.07;;;;;;;;;;4904789;29;20122;-45
2023/04/17 03:06:09;;;;;;;19.33;5.65;;;;;;;;;;4911376;29;20075;-49
2023/04/17 03:08:38;;;;;;;17.52;5.57;;;;;;;;;;4904658;29;20071;-44
2023/04/17 03:11:05;;;;;;;16.17;4.93;;;;;;;;;;4921469;28;20063;-45
2023/04/17 03:13:35;;;;;;;19.95;5.50;;;;;;;;;;4900271;29;20040;-44
2023/04/17 03:16:03;;;;;;;19.13;6.80;;;;;;;;;;4904833;29;20123;-45
2023/04/17 03:18:31;;;;;;;19.70;5.72;;;;;;;;;;4901267;29;20067;-47
2023/04/17 03:20:59;;;;;;;19.45;6.10;;;;;;;;;;4905069;29;20043;-45
2023/04/17 03:23:26;;;;;;;21.20;5.17;;;;;;;;;;4906216;29;20052;-44
2023/04/17 03:25:55;;;;;;;20.75;5.85;;;;;;;;;;4910419;29;20142;-46
2023/04/17 03:28:23;;;;;;;18.50;5.38;;;;;;;;;;4915478;29;20067;-43
2023/04/17 03:30:51;;;;;;;17.13;6.03;;;;;;;;;;4911996;29;20134;-45
2023/04/17 03:33:20;;;;;;;22.42;6.18;;;;;;;;;;4905253;29;20357;-46
2023/04/17 03:35:48;;;;;;;20.97;5.63;;;;;;;;;;4903779;29;20094;-44
2023/04/17 03:38:16;;;;;;;23.02;5.93;;;;;;;;;;4913759;29;20075;-44
2023/04/17 03:40:44;;;;;;;22.77;6.25;;;;;;;;;;4905338;29;20040;-43
2023/04/17 03:43:12;;;;;;;20.35;6.40;;;;;;;;;;4909606;29;20071;-44
2023/04/17 03:45:41;;;;;;;20.80;6.72;;;;;;;;;;4902693;29;20091;-43
2023/04/17 03:48:08;;;;;;;20.27;7.60;;;;;;;;;;4895762;29;20047;-43
2023/04/17 03:50:36;;;;;;;20.35;6.72;;;;;;;;;;4914598;29;20075;-44
2023/04/17 03:53:04;;;;;;;20.52;6.63;;;;;;;;;;4912732;29;20126;-44
2023/04/17 03:55:31;;;;;;;17.23;6.43;;;;;;;;;;4892779;29;20134;-44
2023/04/17 03:58:00;;;;;;;20.77;6.72;;;;;;;;;;4918630;29;20126;-43
2023/04/17 04:00:30;;;;;;;20.27;6.83;;;;;;;;;;4907078;29;20497;-46
2023/04/17 04:02:58;;;;;;;18.33;6.25;;;;;;;;;;4914332;29;20101;-43
2023/04/17 04:05:26;;;;;;;16.98;5.85;;;;;;;;;;4910070;29;20110;-45
2023/04/17 04:07:54;;;;;;;17.63;5.78;;;;;;;;;;4909790;28;20055;-44
2023/04/17 04:10:21;;;;;;;16.48;6.28;;;;;;;;;;4904855;29;20411;-43
2023/04/17 04:12:50;;;;;;;23.07;6.37;;;;;;;;;;4900283;29;20664;-43
2023/04/17 04:15:17;;;;;;;21.52;7.10;;;;;;;;;;4898594;29;20131;-45
2023/04/17 04:17:46;;;;;;;24.77;7.72;;;;;;;;;;4912030;29;20143;-43
2023/04/17 04:20:14;;;;;;;20.27;6.60;;;;;;;;;;4910339;29;20040;-45
2023/04/17 04:22:43;;;;;;;18.23;6.35;;;;;;;;;;4916299;29;20150;-44
2023/04/17 04:25:11;;;;;;;17.87;6.23;;;;;;;;;;4906165;29;20046;-43
2023/04/17 04:27:39;;;;;;;22.80;6.68;;;;;;;;;;4914731;29;20031;-43
2023/04/17 04:30:09;;;;;;;18.27;6.30;;;;;;;;;;4913506;29;20179;-44
2023/04/17 04:32:37;;;;;;;17.45;5.43;;;;;;;;;;4913326;29;20048;-43
2023/04/17 04:35:08;;;;;;;19.80;5.63;;;;;;;;;;4904804;29;20115;-46
2023/04/17 04:37:37;;;;;;;22.33;6.63;;;;;;;;;;4920042;29;20099;-44
2023/04/17 04:40:09;;;;;;;17.23;5.97;;;;;;;;;;4910384;29;20383;-43
2023/04/17 04:42:38;;;;;;;18.02;6.32;;;;;;;;;;4917182;29;20055;-43
2023/04/17 04:45:06;;;;;;;19.88;5.97;;;;;;;;;;4903663;29;20040;-45
2023/04/17 04:47:34;;;;;;;20.13;5.97;;;;;;;;;;4912679;29;20044;-44
2023/04/17 04:50:03;;;;;;;19.37;5.47;;;;;;;;;;4912490;29;20047;-44
2023/04/17 04:52:31;;;;;;;20.50;6.28;;;;;;;;;;4909778;29;20126;-44
2023/04/17 04:54:59;;;;;;;15.57;5.50;;;;;;;;;;4912400;29;20036;-43
2023/04/17 04:57:27;;;;;;;16.65;5.70;;;;;;;;;;4914714;29;20520;-45
2023/04/17 04:59:55;;;;;;;18.15;6.18;;;;;;;;;;4911560;29;20047;-43
2023/04/17 05:02:22;;;;;;;18.43;6.33;;;;;;;;;;4897689;29;20111;-44
2023/04/17 05:04:51;;;;;;;15.98;5.55;;;;;;;;;;4911234;29;20494;-45
2023/04/17 05:07:19;;;;;;;19.85;6.10;;;;;;;;;;4910740;29;20048;-46
2023/04/17 05:09:48;;;;;;;17.48;6.00;;;;;;;;;;4908330;29;20044;-46
2023/04/17 05:12:16;;;;;;;16.98;5.22;;;;;;;;;;4910965;29;20135;-44
2023/04/17 05:14:44;;;;;;;16.33;5.90;;;;;;;;;;4904615;29;20414;-45
2023/04/17 05:17:11;;;;;;;18.75;6.32;;;;;;;;;;4915491;29;20082;-43
2023/04/17 05:19:39;;;;;;;21.40;6.50;;;;;;;;;;4907276;29;20123;-44
2023/04/17 05:22:07;;;;;;;17.67;6.25;;;;;;;;;;4905137;29;20051;-43
2023/04/17 05:24:34;;;;;;;19.92;6.20;;;;;;;;;;4913035;29;20043;-43
2023/04/17 05:27:04;;;;;;;21.00;5.77;;;;;;;;;;4904269;29;20078;-45
2023/04/17 05:29:32;;;;;;;18.50;6.03;;;;;;;;;;4912816;29;20067;-43
2023/04/17 05:32:00;;;;;;;18.23;6.40;;;;;;;;;;4907707;29;20493;-43
2023/04/17 05:34:28;;;;;;;19.60;5.68;;;;;;;;;;4912409;29;20040;-43
2023/04/17 05:36:55;;;;;;;15.60;5.28;;;;;;;;;;4900401;29;20055;-43
2023/04/17 05:39:23;;;;;;;14.73;5.70;;;;;;;;;;4913695;29;20047;-44
2023/04/17 05:41:51;;;;;;;18.73;5.80;;;;;;;;;;4898766;29;20118;-43
2023/04/17 05:44:20;;;;;;;16.38;5.50;;;;;;;;;;4912980;29;20068;-43
2023/04/17 05:46:47;;;;;;;15.80;5.35;;;;;;;;;;4905851;29;20107;-43
2023/04/17 05:49:16;;;;;;;13.13;4.35;;;;;;;;;;4910772;29;20067;-43
2023/04/17 05:51:43;;;;;;;19.50;4.83;;;;;;;;;;4906692;29;20078;-43
2023/04/17 05:54:11;;;;;;;15.98;5.15;;;;;;;;;;4913269;29;20047;-44
2023/04/17 05:56:39;;;;;;;12.82;4.25;;;;;;;;;;4911074;29;20127;-44
2023/04/17 05:59:06;;;;;;;15.90;3.78;;;;;;;;;;4912870;29;20442;-44
2023/04/17 06:01:36;;;;;;;16.42;3.70;;;;;;;;;;4903953;29;20056;-47
2023/04/17 06:04:03;;;;;;;12.73;3.30;;;;;;;;;;4899572;29;20067;-44
2023/04/17 06:06:31;;;;;;;17.45;3.85;;;;;;;;;;4914541;29;20047;-43
2023/04/17 06:08:59;;;;;;;11.20;3.75;;;;;;;;;;4908212;29;20036;-44
2023/04/17 06:11:27;;;;;;;13.30;3.60;;;;;;;;;;4906391;29;20035;-44
2023/04/17 06:13:55;;;;;;;12.25;3.28;;;;;;;;;;4906699;29;20052;-43
2023/04/17 06:16:23;;;;;;;15.37;3.77;;;;;;;;;;4914705;29;20059;-45
2023/04/17 06:18:52;;;;;;;14.65;4.20;;;;;;;;;;4899091;29;20059;-43
2023/04/17 06:21:19;;;;;;;15.02;4.50;;;;;;;;;;4916226;29;20542;-45
2023/04/17 06:24:05;;;;;;;12.55;3.47;;;;;;;;;;4914267;29;20043;-45
2023/04/17 06:26:33;;;;;;;11.07;3.17;;;;;;;;;;4917050;29;20142;-46
2023/04/17 06:29:01;;;;;;;12.80;3.00;;;;;;;;;;4907675;29;20078;-43
2023/04/17 06:31:28;;;;;;;10.15;3.00;;;;;;;;;;4915700;29;20399;-43
2023/04/17 06:33:58;;;;;;;13.30;3.70;;;;;;;;;;4910581;29;20047;-45
2023/04/17 06:36:26;;;;;;;15.00;4.07;;;;;;;;;;4911055;29;20044;-43
2023/04/17 06:38:53;;;;;;;13.13;3.47;;;;;;;;;;4896078;29;20039;-43
2023/04/17 06:41:24;;;;;;;11.97;3.60;;;;;;;;;;4917070;29;20529;-44
2023/04/17 06:43:51;;;;;;;13.82;3.85;;;;;;;;;;4909702;29;20514;-45
2023/04/17 06:46:19;;;;;;;12.82;3.20;;;;;;;;;;4907924;29;20095;-43
2023/04/17 06:48:48;;;;;;;12.82;3.90;;;;;;;;;;4912445;29;20612;-44
2023/04/17 06:51:19;;;;;;;12.25;3.60;;;;;;;;;;4902108;29;20040;-43
2023/04/17 06:53:47;;;;;;;10.13;3.47;;;;;;;;;;4907315;29;20047;-43
2023/04/17 06:56:16;;;;;;;12.75;3.85;;;;;;;;;;4908082;29;20036;-43
2023/04/17 06:58:44;;;;;;;12.45;3.53;;;;;;;;;;4920164;29;20111;-45
2023/04/17 07:01:13;;;;;;;11.75;3.35;;;;;;;;;;4903647;29;20079;-44
2023/04/17 07:03:41;;;;;;;9.65;3.33;;;;;;;;;;4903998;29;20051;-44
2023/04/17 07:06:10;;;;;;;12.40;3.60;;;;;;;;;;4916147;28;20043;-43
2023/04/17 07:08:39;;;;;;;11.32;3.42;;;;;;;;;;4909424;29;20471;-45
2023/04/17 07:11:07;;;;;;;13.95;3.60;;;;;;;;;;4908454;29;20139;-46
2023/04/17 07:13:35;;;;;;;10.55;3.70;;;;;;;;;;4901989;29;20051;-45
2023/04/17 07:16:02;;;;;;;16.40;3.55;;;;;;;;;;4907549;29;20043;-46
2023/04/17 07:18:30;;;;;;;12.40;3.27;;;;;;;;;;4916436;29;20044;-43
2023/04/17 07:20:58;;;;;;;9.82;3.50;;;;;;;;;;4902625;29;20066;-45
2023/04/17 07:23:26;;;;;;;10.40;3.50;;;;;;;;;;4905205;29;20052;-43
2023/04/17 07:25:55;;;;;;;11.93;2.63;;;;;;;;;;4909639;29;20126;-43
2023/04/17 07:28:23;;;;;;;8.45;2.60;;;;;;;;;;4916036;29;20225;-45
2023/04/17 07:30:53;;;;;;;12.07;2.67;;;;;;;;;;4904905;29;20040;-46
2023/04/17 07:33:21;;;;;;;10.18;2.50;;;;;;;;;;4911272;29;20055;-46
2023/04/17 07:35:49;;;;;;;14.02;2.65;;;;;;;;;;4909340;29;20036;-48
2023/04/17 07:38:16;;;;;;;14.10;2.78;;;;;;;;;;4911330;29;20070;-44
2023/04/17 07:40:44;;;;;;;14.30;2.47;;;;;;;;;;4906127;29;20046;-43
2023/04/17 07:43:14;;;;;;;8.80;2.20;;;;;;;;;;4908635;28;20091;-45
2023/04/17 07:45:42;;;;;;;7.72;2.35;;;;;;;;;;4905431;29;20036;-47
2023/04/17 07:48:10;;;;;;;9.25;2.80;;;;;;;;;;4909168;29;20032;-43
2023/04/17 07:50:38;;;;;;;11.00;2.60;;;;;;;;;;4906613;29;20080;-45
2023/04/17 07:53:08;;;;;;;10.63;2.45;;;;;;;;;;4899421;29;20490;-46
2023/04/17 07:55:36;;;;;;;8.20;2.13;;;;;;;;;;4905832;29;20083;-46
2023/04/17 07:58:05;;;;;;;8.27;2.88;;;;;;;;;;4898748;29;20036;-46
2023/04/17 08:00:34;;;;;;;8.90;2.22;;;;;;;;;;4898168;29;20047;-44
2023/04/17 08:03:02;;;;;;;8.68;1.70;;;;;;;;;;4898882;29;20051;-47
2023/04/17 08:05:30;;;;;;;10.77;2.38;;;;;;;;;;4889400;29;20064;-46
2023/04/17 08:07:59;;;;;;;9.03;1.97;;;;;;;;;;4891588;29;20043;-46
2023/04/17 08:10:26;;;;;;;9.95;2.67;;;;;;;;;;4894070;29;20054;-46
2023/04/17 08:12:54;;;;;;;8.00;2.25;;;;;;;;;;4893688;29;20051;-45
2023/04/17 08:15:22;;;;;;;8.02;2.05;;;;;;;;;;4887244;29;20138;-45
2023/04/17 08:17:51;;;;;;;7.85;2.38;;;;;;;;;;4891558;29;20629;-46
2023/04/17 08:20:19;;;;;;;9.03;2.30;;;;;;;;;;4888044;29;20040;-44
2023/04/17 08:22:49;;;;;;;6.07;2.05;;;;;;;;;;4885178;29;20299;-44
2023/04/17 08:25:17;;;;;;;12.60;2.40;;;;;;;;;;4884211;29;20048;-45
2023/04/17 08:27:45;;;;;;;8.63;2.03;;;;;;;;;;4890332;29;20561;-45
2023/04/17 08:30:14;;;;;;;6.20;1.90;;;;;;;;;;4886187;29;20103;-44
2023/04/17 08:32:46;;;;;;;9.83;1.63;;;;;;;;;;4894754;29;20035;-46
2023/04/17 08:35:16;;;;;;;10.55;2.33;;;;;;;;;;4894269;29;21384;-45
2023/04/17 08:37:45;;;;;;;6.57;1.73;;;;;;;;;;4891368;29;20048;-47
2023/04/17 08:40:14;;;;;;;7.75;1.85;;;;;;;;;;4890699;29;20052;-45
2023/04/17 08:42:42;;;;;;;9.32;1.90;;;;;;;;;;4897639;29;20124;-46
2023/04/17 08:45:11;;;;;;;12.23;2.23;;;;;;;;;;4887622;29;20040;-44
2023/04/17 08:47:39;;;;;;;12.20;2.88;;;;;;;;;;4883881;29;20048;-44
2023/04/17 08:50:08;;;;;;;7.50;1.52;;;;;;;;;;4885288;29;20054;-46
2023/04/17 08:52:41;;;;;;;6.10;1.90;;;;;;;;;;4893262;29;20054;-44
2023/04/17 08:55:09;;;;;;;7.40;1.90;;;;;;;;;;4895980;29;20119;-45
2023/04/17 08:57:53;;;;;;;10.27;2.30;;;;;;;;;;4890449;29;20740;-43
2023/04/17 09:00:24;;;;;;;7.80;2.28;;;;;;;;;;4888557;29;20051;-43
2023/04/17 09:02:53;;;;;;;8.43;2.10;;;;;;;;;;4888008;29;20051;-46
2023/04/17 09:05:21;;;;;;;7.03;2.17;;;;;;;;;;4893316;29;20079;-45
2023/04/17 09:07:50;;;;;;;7.15;2.00;;;;;;;;;;4878607;29;20036;-47
2023/04/17 09:10:18;;;;;;;7.53;2.23;;;;;;;;;;4889758;29;20040;-45
2023/04/17 09:12:58;;;;;;;6.43;2.28;;;;;;;;;;4883368;29;20162;-45
2023/04/17 09:15:26;;;;;;;7.93;2.17;;;;;;;;;;4882153;29;20067;-44
2023/04/17 09:17:54;;;;;;;7.85;2.45;;;;;;;;;;4889534;29;20051;-44
2023/04/17 09:20:23;;;;;;;7.68;2.58;;;;;;;;;;4893555;29;20795;-45
2023/04/17 09:22:58;;;;;;;6.37;2.00;;;;;;;;;;4894248;29;20071;-46
2023/04/17 09:25:26;;;;;;;8.43;2.15;;;;;;;;;;4885195;29;20052;-46
2023/04/17 09:27:55;;;;;;;10.25;2.10;;;;;;;;;;4887666;29;20031;-46
2023/04/17 09:30:25;;;;;;;4.80;1.38;;;;;;;;;;4894856;29;20048;-44
2023/04/17 09:33:02;;;;;;;4.60;0.75;;;;;;;;;;4884693;29;20249;-45
2023/04/17 09:35:31;;;;;;;8.03;1.70;;;;;;;;;;4889612;29;20047;-44
2023/04/17 09:38:00;;;;;;;6.07;1.73;;;;;;;;;;4896466;29;20146;-45
2023/04/17 09:40:35;;;;;;;6.40;1.63;;;;;;;;;;4893793;29;20043;-44
2023/04/17 09:43:04;;;;;;;6.07;1.80;;;;;;;;;;4894706;29;20519;-45
2023/04/17 09:45:36;;;;;;;5.78;1.70;;;;;;;;;;4885870;29;20047;-45
2023/04/17 09:48:05;;;;;;;6.47;1.73;;;;;;;;;;4874217;29;20079;-45
2023/04/17 09:50:33;;;;;;;7.40;1.67;;;;;;;;;;4883010;29;20114;-44
2023/04/17 09:53:05;;;;;;;5.45;1.80;;;;;;;;;;4888846;29;20056;-44
2023/04/17 09:55:35;;;;;;;5.38;1.60;;;;;;;;;;4884345;29;20048;-45
2023/04/17 09:58:04;;;;;;;7.25;2.00;;;;;;;;;;4877732;29;20060;-44
2023/04/17 10:00:31;;;;;;;7.00;1.90;;;;;;;;;;4895976;29;20383;-44
2023/04/17 10:02:59;;;;;;;8.10;1.77;;;;;;;;;;4887041;29;20036;-44
2023/04/17 10:05:30;;;;;;;6.15;1.80;;;;;;;;;;4879536;29;20590;-44
2023/04/17 10:07:58;;;;;;;4.95;1.90;;;;;;;;;;4889618;29;20459;-44
2023/04/17 10:10:29;;;;;;;5.50;1.92;;;;;;;;;;4880396;29;20072;-45
2023/04/17 10:12:59;;;;;;;4.50;2.00;;;;;;;;;;4895018;29;20075;-44
2023/04/17 10:15:26;;;;;;;4.32;1.70;;;;;;;;;;4886934;29;20767;-48
2023/04/17 10:17:56;;;;;;;8.10;2.30;;;;;;;;;;4886882;29;20691;-45
2023/04/17 10:20:35;;;;;;;7.00;2.25;;;;;;;;;;4882433;29;20048;-45
2023/04/17 10:23:25;;;;;;;11.30;2.90;;;;;;;;;;4897323;29;20142;-47
2023/04/17 10:26:24;;;;;;;6.53;2.90;;;;;;;;;;4887484;29;20087;-47
2023/04/17 10:28:53;;;;;;;8.45;2.50;;;;;;;;;;4887273;29;20541;-45
2023/04/17 10:31:22;;;;;;;8.20;2.63;;;;;;;;;;4896163;29;20055;-45
2023/04/17 10:33:50;;;;;;;7.10;2.63;;;;;;;;;;4885229;29;20047;-45
2023/04/17 10:36:33;;;;;;;5.32;2.30;;;;;;;;;;4883491;29;20055;-43
2023/04/17 10:39:11;;;;;;;5.57;2.70;;;;;;;;;;4883696;29;20131;-47
2023/04/17 10:41:55;;;;;;;7.47;3.00;;;;;;;;;;4893568;29;20473;-44
2023/04/17 10:44:24;;;;;;;8.18;3.45;;;;;;;;;;4891962;29;21337;-44
2023/04/17 10:46:52;;;;;;;11.65;4.18;;;;;;;;;;4890268;29;20040;-48
2023/04/17 10:49:21;;;;;;;10.25;4.10;;;;;;;;;;4890046;29;21087;-45
2023/04/17 10:51:51;;;;;;;9.27;3.37;;;;;;;;;;4896838;29;20117;-44
2023/04/17 10:54:18;;;;;;;8.90;3.40;;;;;;;;;;4891256;29;20060;-46
2023/04/17 10:56:47;;;;;;;8.07;3.05;;;;;;;;;;4893187;29;20675;-45
2023/04/17 10:59:16;;;;;;;9.77;3.53;;;;;;;;;;4888773;29;20116;-47
2023/04/17 11:01:59;;;;;;;8.88;3.40;;;;;;;;;;4899919;29;20059;-44
2023/04/17 11:04:29;;;;;;;6.07;3.00;;;;;;;;;;4889308;29;20048;-45
2023/04/17 11:06:57;;;;;;;8.38;2.88;;;;;;;;;;4875518;29;20496;-47
2023/04/17 11:09:26;;;;;;;7.55;2.70;;;;;;;;;;4886481;29;20044;-47
2023/04/17 11:11:55;;;;;;;10.60;2.92;;;;;;;;;;4881130;29;20052;-44
2023/04/17 11:14:23;;;;;;;8.07;3.25;;;;;;;;;;4905243;29;20047;-46
2023/04/17 11:16:51;;;;;;;9.47;3.30;;;;;;;;;;4901957;29;20083;-47
2023/04/17 11:19:22;;;;;;;5.60;2.42;;;;;;;;;;4907026;29;20135;-46
2023/04/17 11:21:51;;;;;;;7.07;2.40;;;;;;;;;;4910853;29;20055;-44
2023/04/17 11:24:22;;;;;;;6.38;2.72;;;;;;;;;;4905104;29;20052;-47
2023/04/17 11:26:50;;;;;;;6.00;2.75;;;;;;;;;;4904301;29;20096;-44
2023/04/17 11:29:18;;;;;;;8.23;2.47;;;;;;;;;;4918434;29;20131;-45
2023/04/17 11:31:46;;;;;;;8.77;2.88;;;;;;;;;;4910873;29;20071;-47
2023/04/17 11:34:15;;;;;;;6.50;3.15;;;;;;;;;;4907591;29;20498;-44
2023/04/17 11:36:50;;;;;;;8.23;4.30;;;;;;;;;;4899438;29;20417;-44
2023/04/17 11:39:18;;;;;;;7.00;1.63;;;;;;;;;;4906669;29;20079;-43
2023/04/17 11:41:46;;;;;;;6.33;2.50;;;;;;;;;;4899214;29;20445;-46
2023/04/17 11:44:14;;;;;;;8.50;2.85;;;;;;;;;;4904384;29;20052;-44
2023/04/17 11:46:42;;;;;;;10.18;2.95;;;;;;;;;;4882893;29;20122;-45
2023/04/17 11:49:10;;;;;;;5.38;2.33;;;;;;;;;;4894477;29;21119;-46
2023/04/17 11:51:39;;;;;;;7.63;2.78;;;;;;;;;;4891863;29;20059;-47
2023/04/17 11:54:08;;;;;;;8.27;2.87;;;;;;;;;;4878234;29;20064;-44
2023/04/17 11:56:36;;;;;;;4.95;2.22;;;;;;;;;;4890251;29;21016;-43
2023/04/17 11:59:04;;;;;;;8.82;2.35;;;;;;;;;;4891569;29;20040;-44
2023/04/17 12:01:32;;;;;;;8.00;2.75;;;;;;;;;;4880002;29;20525;-44
2023/04/17 12:04:00;;;;;;;6.15;2.40;;;;;;;;;;4889324;29;20132;-46
2023/04/17 12:06:35;;;;;;;6.10;2.23;;;;;;;;;;4885246;29;20059;-45
2023/04/17 12:09:05;;;;;;;6.05;2.30;;;;;;;;;;4886870;29;20044;-45
2023/04/17 12:11:34;;;;;;;6.88;2.15;;;;;;;;;;4881936;29;21350;-45
2023/04/17 12:14:04;;;;;;;6.75;2.40;;;;;;;;;;4885610;29;20162;-44
2023/04/17 12:16:31;;;;;;;4.97;1.80;;;;;;;;;;4880303;29;21347;-45
2023/04/17 12:18:59;;;;;;;8.33;2.23;;;;;;;;;;4871518;29;20167;-46
2023/04/17 12:21:27;;;;;;;7.32;2.38;;;;;;;;;;4886124;29;20048;-45
2023/04/17 12:23:55;;;;;;;6.75;2.42;;;;;;;;;;4896341;29;21258;-44
2023/04/17 12:26:24;;;;;;;7.85;2.10;;;;;;;;;;4877349;29;20107;-45
2023/04/17 12:28:53;;;;;;;4.78;1.73;;;;;;;;;;4894487;29;20044;-44
2023/04/17 12:31:20;;;;;;;5.67;1.50;;;;;;;;;;4888368;29;20048;-45
2023/04/17 12:33:48;;;;;;;8.00;2.75;;;;;;;;;;4885066;29;20138;-45
2023/04/17 12:36:16;;;;;;;4.78;1.80;;;;;;;;;;4896758;29;20075;-44
2023/04/17 12:38:45;;;;;;;5.53;2.17;;;;;;;;;;4894460;29;20181;-45
2023/04/17 12:41:12;;;;;;;6.15;2.47;;;;;;;;;;4875896;29;20076;-45
2023/04/17 12:43:40;;;;;;;8.43;2.80;;;;;;;;;;4892516;29;20035;-44
2023/04/17 12:46:10;;;;;;;7.35;3.65;;;;;;;;;;4881600;29;21040;-44
2023/04/17 12:48:37;;;;;;;7.82;2.58;;;;;;;;;;4888871;29;20040;-44
2023/04/17 12:51:05;;;;;;;5.93;1.80;;;;;;;;;;4891164;29;20048;-46
2023/04/17 12:53:33;;;;;;;7.82;2.30;;;;;;;;;;4896688;29;20080;-44
2023/04/17 12:56:01;;;;;;;6.83;2.60;;;;;;;;;;4887741;29;20048;-47
2023/04/17 12:58:28;;;;;;;6.80;2.50;;;;;;;;;;4878963;29;20048;-44
2023/04/17 13:00:56;;;;;;;7.05;2.47;;;;;;;;;;4891981;29;20675;-44
2023/04/17 13:03:25;;;;;;;8.77;2.55;;;;;;;;;;4893111;29;20044;-46
2023/04/17 13:05:53;;;;;;;5.70;2.10;;;;;;;;;;4881852;29;20047;-45
2023/04/17 13:08:21;;;;;;;5.57;1.87;;;;;;;;;;4894479;29;20079;-48
2023/04/17 13:10:49;;;;;;;7.20;2.15;;;;;;;;;;4889571;29;20562;-46
2023/04/17 13:13:17;;;;;;;8.23;1.90;;;;;;;;;;4879681;29;20039;-50
2023/04/17 13:15:46;;;;;;;7.78;1.58;;;;;;;;;;4895220;29;20071;-45
2023/04/17 13:18:14;;;;;;;5.22;2.00;;;;;;;;;;4891202;29;20520;-46
2023/04/17 13:20:43;;;;;;;6.70;1.93;;;;;;;;;;4888157;29;20047;-46
2023/04/17 13:23:13;;;;;;;6.60;1.95;;;;;;;;;;4891552;29;20155;-44
2023/04/17 13:25:41;;;;;;;5.70;2.00;;;;;;;;;;4897877;29;20066;-46
2023/04/17 13:28:09;;;;;;;4.93;1.60;;;;;;;;;;4888461;29;20955;-46
2023/04/17 13:30:36;;;;;;;7.65;2.60;;;;;;;;;;4889561;29;20118;-46
2023/04/17 13:33:04;;;;;;;5.57;2.07;;;;;;;;;;4884212;29;20047;-47
2023/04/17 13:35:32;;;;;;;6.05;2.90;;;;;;;;;;4892007;29;20103;-47
2023/04/17 13:38:01;;;;;;;6.47;2.30;;;;;;;;;;4888076;29;20040;-46
2023/04/17 13:40:29;;;;;;;5.13;1.30;;;;;;;;;;4894834;29;20036;-45
2023/04/17 13:42:57;;;;;;;6.30;2.53;;;;;;;;;;4892892;29;20130;-47
2023/04/17 13:45:25;;;;;;;5.67;2.47;;;;;;;;;;4889589;29;20052;-46
2023/04/17 13:47:53;;;;;;;6.30;2.60;;;;;;;;;;4882822;29;20095;-46
2023/04/17 13:50:20;;;;;;;6.63;2.47;;;;;;;;;;4871816;29;20051;-47
2023/04/17 13:52:48;;;;;;;6.72;2.65;;;;;;;;;;4893210;29;20051;-47
2023/04/17 13:55:17;;;;;;;7.68;2.60;;;;;;;;;;4876378;29;20755;-49
2023/04/17 13:57:45;;;;;;;6.37;2.83;;;;;;;;;;4882750;29;20098;-47
2023/04/17 14:00:13;;;;;;;8.50;3.00;;;;;;;;;;4902009;29;20047;-46
2023/04/17 14:02:41;;;;;;;7.47;3.00;;;;;;;;;;4896699;29;20102;-45
2023/04/17 14:05:10;;;;;;;7.03;2.97;;;;;;;;;;4893293;29;20106;-48
2023/04/17 14:07:38;;;;;;;9.90;3.50;;;;;;;;;;4882716;29;20103;-45
2023/04/17 14:10:06;;;;;;;6.93;3.17;;;;;;;;;;4894130;29;20087;-49
2023/04/17 14:12:36;;;;;;;7.88;3.13;;;;;;;;;;4897032;29;20087;-44
2023/04/17 14:15:04;;;;;;;6.47;2.03;;;;;;;;;;4893043;29;20122;-44
2023/04/17 14:17:33;;;;;;;5.72;2.72;;;;;;;;;;4887534;29;20573;-46
2023/04/17 14:20:01;;;;;;;5.38;1.70;;;;;;;;;;4900075;29;20035;-44
2023/04/17 14:22:29;;;;;;;8.90;3.73;;;;;;;;;;4889297;29;20512;-44
2023/04/17 14:24:57;;;;;;;6.93;3.28;;;;;;;;;;4895926;29;20170;-44
2023/04/17 14:27:24;;;;;;;6.43;1.98;;;;;;;;;;4885343;29;20079;-47
2023/04/17 14:29:53;;;;;;;10.68;3.67;;;;;;;;;;4896253;29;20715;-46
2023/04/17 14:32:21;;;;;;;8.30;3.28;;;;;;;;;;4890809;29;20049;-45
2023/04/17 14:34:49;;;;;;;7.17;3.40;;;;;;;;;;4890090;29;20071;-44
2023/04/17 14:37:17;;;;;;;9.23;3.85;;;;;;;;;;4883457;29;20139;-45
2023/04/17 14:39:44;;;;;;;8.38;4.13;;;;;;;;;;4892188;29;20711;-46
2023/04/17 14:42:12;;;;;;;7.60;3.60;;;;;;;;;;4889749;29;20124;-47
2023/04/17 14:44:42;;;;;;;7.03;3.58;;;;;;;;;;4896606;29;20071;-46